Alkin Kalkavan — TCOL6 — position and weather

sailwx.info

Track history (hours):
 
Tides and Currents Weather Stations Pressure Air Temp Water Temp Dewpoint Dewpoint Depression Visibility Wind Speed Wind Dir Waves Ship Positions

Alkin Kalkavan

Last reported at 2016-Feb-22 15:20 UTC. Time now 2016-Aug-29 07:08 UTC.
Position N 37°53' E 023°33'.
Warning: this ship's position is months out of date.

Length 148 m; draft 6.7 m.

Type: Cargo ship. MMSI: 271000905.

Date/timePositionNaut miles runAvg speedWind from/ knotsBaromVisibWave heightAir tempDewpointWater temp
2016-Feb-22 15:20N 37°53' E 023°33'0 0.0
2016-Feb-22 14:32N 37°53' E 023°33'0 0.0
2016-Feb-22 13:31N 37°53' E 023°33'0 0.0
2016-Feb-22 12:31N 37°53' E 023°33'0 0.0
2016-Feb-22 11:33N 37°53' E 023°33'0 0.0
2016-Feb-22 10:31N 37°53' E 023°33'0 0.0
2016-Feb-22 09:31N 37°53' E 023°33'0 0.0
2016-Feb-22 08:33N 37°53' E 023°33'0 0.0
2016-Feb-22 07:32N 37°53' E 023°33'0 0.0
2016-Feb-22 06:32N 37°53' E 023°33'0 0.0
2016-Feb-22 05:31N 37°53' E 023°33'0 0.0
2016-Feb-22 04:31N 37°53' E 023°33'0 0.0
2016-Feb-22 03:31N 37°53' E 023°33'0 0.0
2016-Feb-22 02:33N 37°53' E 023°33'0 0.0
2016-Feb-22 01:33N 37°53' E 023°33'0 0.0
2016-Feb-22 00:33N 37°53' E 023°33'0 0.0
2016-Feb-21 23:32N 37°53' E 023°33'0 0.0
2016-Feb-21 22:31N 37°53' E 023°33'0 0.0
2016-Feb-21 21:31N 37°53' E 023°33'0 0.0
2016-Feb-21 20:31N 37°53' E 023°33'0 0.0
2016-Feb-21 19:33N 37°53' E 023°33'0 0.0
2016-Feb-21 18:33N 37°53' E 023°33'0 0.0
2016-Feb-21 17:32N 37°53' E 023°33'0 0.0
2016-Feb-21 16:32N 37°53' E 023°33'0 0.0
2016-Feb-21 15:32N 37°53' E 023°33'0 0.0
2016-Feb-21 14:31N 37°53' E 023°33'0 0.0
2016-Feb-21 13:31N 37°53' E 023°33'0 0.0
2016-Feb-21 12:33N 37°53' E 023°33'0 0.0
2016-Feb-21 11:33N 37°53' E 023°33'0 0.0
2016-Feb-21 10:32N 37°53' E 023°33'0 0.1
2016-Feb-21 09:32N 37°53' E 023°33'0 0.0
2016-Feb-21 08:31N 37°53' E 023°33'0 0.1
2016-Feb-21 07:33N 37°53' E 023°33'3 3.0
2016-Feb-21 06:33N 37°51' E 023°36'1 1.1
2016-Feb-21 05:34N 37°52' E 023°36'2 1.7
2016-Feb-21 04:33N 37°54' E 023°36'3 3.4
2016-Feb-21 03:33N 37°51' E 023°38'2 1.8
2016-Feb-21 02:33N 37°52' E 023°37'2 1.5
2016-Feb-21 01:33N 37°53' E 023°36'3 3.0
2016-Feb-21 00:34N 37°51' E 023°38'2 2.0
2016-Feb-20 23:33N 37°53' E 023°37'3 3.1
2016-Feb-20 22:33N 37°52' E 023°33'1 0.9
2016-Feb-20 21:33N 37°53' E 023°34'5 4.6
2016-Feb-20 20:31N 37°57' E 023°36'0 0.0
2016-Feb-20 19:33N 37°57' E 023°36'0 0.1
2016-Feb-20 18:29N 37°57' E 023°36'0 0.0
2016-Feb-20 17:32N 37°57' E 023°36'0 0.0
2016-Feb-20 16:31N 37°57' E 023°36'0 0.0
2016-Feb-20 15:31N 37°57' E 023°36'0 0.0
2016-Feb-20 14:33N 37°57' E 023°36'0 0.0
2016-Feb-20 13:33N 37°57' E 023°36'0 0.0
2016-Feb-20 12:05N 37°57' E 023°36'0 0.0
2016-Feb-20 11:29N 37°57' E 023°36'0 0.0
2016-Feb-20 10:32N 37°57' E 023°36'0 0.0
2016-Feb-20 09:31N 37°57' E 023°36'0 0.0
2016-Feb-20 08:31N 37°57' E 023°36'0 0.0
2016-Feb-20 07:33N 37°57' E 023°36'0 0.0
2016-Feb-20 06:33N 37°57' E 023°36'0 0.1
2016-Feb-20 05:33N 37°57' E 023°36'3 3.2
2016-Feb-20 04:34N 37°54' E 023°36'3 3.4
2016-Feb-20 03:33N 37°51' E 023°38'1 1.1
2016-Feb-20 02:33N 37°52' E 023°37'1 1.0
2016-Feb-20 01:33N 37°53' E 023°37'1414.0
2016-Feb-20 00:33N 37°41' E 023°46'1714.0
2016-Feb-19 23:21N 37°38' E 024°07'1315.3
2016-Feb-19 22:31N 37°46' E 024°20'  
2016-Feb-13 10:16N 41°01' E 028°60'8 9.9
2016-Feb-13 09:26N 40°53' E 028°55'1112.8
2016-Feb-13 08:33N 40°45' E 029°05'0 0.2
2016-Feb-13 07:33N 40°44' E 029°05'0 0.2
2016-Feb-13 06:33N 40°45' E 029°05'1 0.6
2016-Feb-13 05:32N 40°44' E 029°06'1 1.0
2016-Feb-13 04:32N 40°43' E 029°06'1 0.8
2016-Feb-13 03:33N 40°43' E 029°06'1 0.9
2016-Feb-13 02:32N 40°42' E 029°05'1 0.9
2016-Feb-13 01:32N 40°42' E 029°04'1 0.7
2016-Feb-13 00:32N 40°42' E 029°03'1 0.7
2016-Feb-12 23:33N 40°42' E 029°02'0 0.4
2016-Feb-12 22:31N 40°43' E 029°01'0 0.4
2016-Feb-12 21:33N 40°43' E 029°01'0 0.3
2016-Feb-12 20:33N 40°43' E 029°00'0 0.4
2016-Feb-12 19:33N 40°43' E 028°60'0 0.3
2016-Feb-12 18:33N 40°42' E 028°60'0 0.4
2016-Feb-12 17:31N 40°42' E 028°59'0 0.4
2016-Feb-12 16:33N 40°42' E 028°59'1 0.5
2016-Feb-12 15:33N 40°42' E 028°60'  
Track history (hours):
 
Tides and Currents Weather Stations Pressure Air Temp Water Temp Dewpoint Dewpoint Depression Visibility Wind Speed Wind Dir Waves Ship Positions

Alkin Kalkavan

Last reported at 2016-Feb-22 15:20 UTC. Time now 2016-Aug-29 07:08 UTC.
Position N 37°53' E 023°33'.
Warning: this ship's position is months out of date.

Length 148 m; draft 6.7 m.

Type: Cargo ship. MMSI: 271000905.

Date/timePositionNaut miles runAvg speedWind from/ knotsBaromVisibWave heightAir tempDewpointWater temp
2016-Feb-22 15:20N 37°53' E 023°33'0 0.0
2016-Feb-22 14:32N 37°53' E 023°33'0 0.0
2016-Feb-22 13:31N 37°53' E 023°33'0 0.0
2016-Feb-22 12:31N 37°53' E 023°33'0 0.0
2016-Feb-22 11:33N 37°53' E 023°33'0 0.0
2016-Feb-22 10:31N 37°53' E 023°33'0 0.0
2016-Feb-22 09:31N 37°53' E 023°33'0 0.0
2016-Feb-22 08:33N 37°53' E 023°33'0 0.0
2016-Feb-22 07:32N 37°53' E 023°33'0 0.0
2016-Feb-22 06:32N 37°53' E 023°33'0 0.0
2016-Feb-22 05:31N 37°53' E 023°33'0 0.0
2016-Feb-22 04:31N 37°53' E 023°33'0 0.0
2016-Feb-22 03:31N 37°53' E 023°33'0 0.0
2016-Feb-22 02:33N 37°53' E 023°33'0 0.0
2016-Feb-22 01:33N 37°53' E 023°33'0 0.0
2016-Feb-22 00:33N 37°53' E 023°33'0 0.0
2016-Feb-21 23:32N 37°53' E 023°33'0 0.0
2016-Feb-21 22:31N 37°53' E 023°33'0 0.0
2016-Feb-21 21:31N 37°53' E 023°33'0 0.0
2016-Feb-21 20:31N 37°53' E 023°33'0 0.0
2016-Feb-21 19:33N 37°53' E 023°33'0 0.0
2016-Feb-21 18:33N 37°53' E 023°33'0 0.0
2016-Feb-21 17:32N 37°53' E 023°33'0 0.0
2016-Feb-21 16:32N 37°53' E 023°33'0 0.0
2016-Feb-21 15:32N 37°53' E 023°33'0 0.0
2016-Feb-21 14:31N 37°53' E 023°33'0 0.0
2016-Feb-21 13:31N 37°53' E 023°33'0 0.0
2016-Feb-21 12:33N 37°53' E 023°33'0 0.0
2016-Feb-21 11:33N 37°53' E 023°33'0 0.0
2016-Feb-21 10:32N 37°53' E 023°33'0 0.1
2016-Feb-21 09:32N 37°53' E 023°33'0 0.0
2016-Feb-21 08:31N 37°53' E 023°33'0 0.1
2016-Feb-21 07:33N 37°53' E 023°33'3 3.0
2016-Feb-21 06:33N 37°51' E 023°36'1 1.1
2016-Feb-21 05:34N 37°52' E 023°36'2 1.7
2016-Feb-21 04:33N 37°54' E 023°36'3 3.4
2016-Feb-21 03:33N 37°51' E 023°38'2 1.8
2016-Feb-21 02:33N 37°52' E 023°37'2 1.5
2016-Feb-21 01:33N 37°53' E 023°36'3 3.0
2016-Feb-21 00:34N 37°51' E 023°38'2 2.0
2016-Feb-20 23:33N 37°53' E 023°37'3 3.1
2016-Feb-20 22:33N 37°52' E 023°33'1 0.9
2016-Feb-20 21:33N 37°53' E 023°34'5 4.6
2016-Feb-20 20:31N 37°57' E 023°36'0 0.0
2016-Feb-20 19:33N 37°57' E 023°36'0 0.1
2016-Feb-20 18:29N 37°57' E 023°36'0 0.0
2016-Feb-20 17:32N 37°57' E 023°36'0 0.0
2016-Feb-20 16:31N 37°57' E 023°36'0 0.0
2016-Feb-20 15:31N 37°57' E 023°36'0 0.0
2016-Feb-20 14:33N 37°57' E 023°36'0 0.0
2016-Feb-20 13:33N 37°57' E 023°36'0 0.0
2016-Feb-20 12:05N 37°57' E 023°36'0 0.0
2016-Feb-20 11:29N 37°57' E 023°36'0 0.0
2016-Feb-20 10:32N 37°57' E 023°36'0 0.0
2016-Feb-20 09:31N 37°57' E 023°36'0 0.0
2016-Feb-20 08:31N 37°57' E 023°36'0 0.0
2016-Feb-20 07:33N 37°57' E 023°36'0 0.0
2016-Feb-20 06:33N 37°57' E 023°36'0 0.1
2016-Feb-20 05:33N 37°57' E 023°36'3 3.2
2016-Feb-20 04:34N 37°54' E 023°36'3 3.4
2016-Feb-20 03:33N 37°51' E 023°38'1 1.1
2016-Feb-20 02:33N 37°52' E 023°37'1 1.0
2016-Feb-20 01:33N 37°53' E 023°37'1414.0
2016-Feb-20 00:33N 37°41' E 023°46'1714.0
2016-Feb-19 23:21N 37°38' E 024°07'1315.3
2016-Feb-19 22:31N 37°46' E 024°20'  
2016-Feb-13 10:16N 41°01' E 028°60'8 9.9
2016-Feb-13 09:26N 40°53' E 028°55'1112.8
2016-Feb-13 08:33N 40°45' E 029°05'0 0.2
2016-Feb-13 07:33N 40°44' E 029°05'0 0.2
2016-Feb-13 06:33N 40°45' E 029°05'1 0.6
2016-Feb-13 05:32N 40°44' E 029°06'1 1.0
2016-Feb-13 04:32N 40°43' E 029°06'1 0.8
2016-Feb-13 03:33N 40°43' E 029°06'1 0.9
2016-Feb-13 02:32N 40°42' E 029°05'1 0.9
2016-Feb-13 01:32N 40°42' E 029°04'1 0.7
2016-Feb-13 00:32N 40°42' E 029°03'1 0.7
2016-Feb-12 23:33N 40°42' E 029°02'0 0.4
2016-Feb-12 22:31N 40°43' E 029°01'0 0.4
2016-Feb-12 21:33N 40°43' E 029°01'0 0.3
2016-Feb-12 20:33N 40°43' E 029°00'0 0.4
2016-Feb-12 19:33N 40°43' E 028°60'0 0.3
2016-Feb-12 18:33N 40°42' E 028°60'0 0.4
2016-Feb-12 17:31N 40°42' E 028°59'0 0.4
2016-Feb-12 16:33N 40°42' E 028°59'1 0.5
2016-Feb-12 15:33N 40°42' E 028°60'  

Dump ship's entire track history